sensor_id;sensor_type;location;lat;lon;timestamp;pressure;altitude;pressure_sealevel;temperature;humidity
49461;BME280;35355;49.198;-0.368;2023-03-21T00:00:15;101014.00;;;12.95;65.89
49461;BME280;35355;49.198;-0.368;2023-03-21T00:02:41;101007.72;;;12.95;65.75
49461;BME280;35355;49.198;-0.368;2023-03-21T00:05:07;101007.44;;;12.96;65.92
49461;BME280;35355;49.198;-0.368;2023-03-21T00:07:32;101004.97;;;12.95;65.91
49461;BME280;35355;49.198;-0.368;2023-03-21T00:09:57;100997.03;;;12.93;65.71
49461;BME280;35355;49.198;-0.368;2023-03-21T00:12:23;100997.84;;;12.94;65.81
49461;BME280;35355;49.198;-0.368;2023-03-21T00:14:48;100993.44;;;12.93;65.66
49461;BME280;35355;49.198;-0.368;2023-03-21T00:17:15;100986.84;;;12.89;65.74
49461;BME280;35355;49.198;-0.368;2023-03-21T00:19:40;100979.19;;;12.86;65.78
49461;BME280;35355;49.198;-0.368;2023-03-21T00:22:06;100973.97;;;12.84;65.69
49461;BME280;35355;49.198;-0.368;2023-03-21T00:24:32;100972.63;;;12.81;65.46
49461;BME280;35355;49.198;-0.368;2023-03-21T00:26:58;100979.72;;;12.82;65.80
49461;BME280;35355;49.198;-0.368;2023-03-21T00:29:23;100973.72;;;12.80;65.50
49461;BME280;35355;49.198;-0.368;2023-03-21T00:31:49;100980.84;;;12.81;65.66
49461;BME280;35355;49.198;-0.368;2023-03-21T00:34:14;100974.53;;;12.81;65.20
49461;BME280;35355;49.198;-0.368;2023-03-21T00:36:40;100969.31;;;12.79;65.11
49461;BME280;35355;49.198;-0.368;2023-03-21T00:39:05;100975.91;;;12.78;65.08
49461;BME280;35355;49.198;-0.368;2023-03-21T00:41:31;100972.59;;;12.76;65.30
49461;BME280;35355;49.198;-0.368;2023-03-21T00:43:56;100963.28;;;12.72;65.13
49461;BME280;35355;49.198;-0.368;2023-03-21T00:46:22;100972.03;;;12.69;65.13
49461;BME280;35355;49.198;-0.368;2023-03-21T00:48:47;100961.63;;;12.66;64.88
49461;BME280;35355;49.198;-0.368;2023-03-21T00:51:18;100963.78;;;12.59;64.89
49461;BME280;35355;49.198;-0.368;2023-03-21T00:53:50;100968.16;;;12.55;65.13
49461;BME280;35355;49.198;-0.368;2023-03-21T00:56:15;100963.22;;;12.46;64.96
49461;BME280;35355;49.198;-0.368;2023-03-21T00:58:41;100965.91;;;12.41;64.77
49461;BME280;35355;49.198;-0.368;2023-03-21T01:01:06;100956.59;;;12.32;64.86
49461;BME280;35355;49.198;-0.368;2023-03-21T01:03:33;100964.75;;;12.22;65.11
49461;BME280;35355;49.198;-0.368;2023-03-21T01:06:10;100958.69;;;12.15;65.09
49461;BME280;35355;49.198;-0.368;2023-03-21T01:08:41;100952.66;;;12.07;65.19
49461;BME280;35355;49.198;-0.368;2023-03-21T01:11:10;100954.56;;;12.02;65.24
49461;BME280;35355;49.198;-0.368;2023-03-21T01:13:36;100951.78;;;11.97;64.96
49461;BME280;35355;49.198;-0.368;2023-03-21T01:16:03;100952.06;;;11.95;65.40
49461;BME280;35355;49.198;-0.368;2023-03-21T01:18:30;100956.72;;;11.95;65.52
49461;BME280;35355;49.198;-0.368;2023-03-21T01:20:56;100953.38;;;11.92;65.41
49461;BME280;35355;49.198;-0.368;2023-03-21T01:23:23;100953.09;;;11.89;65.17
49461;BME280;35355;49.198;-0.368;2023-03-21T01:25:55;100956.09;;;11.87;65.33
49461;BME280;35355;49.198;-0.368;2023-03-21T01:28:21;100945.16;;;11.87;64.98
49461;BME280;35355;49.198;-0.368;2023-03-21T01:30:48;100932.56;;;11.86;65.19
49461;BME280;35355;49.198;-0.368;2023-03-21T01:33:15;100926.81;;;11.88;64.96
49461;BME280;35355;49.198;-0.368;2023-03-21T01:35:41;100919.41;;;11.88;65.01
49461;BME280;35355;49.198;-0.368;2023-03-21T01:38:07;100924.09;;;11.88;64.96
49461;BME280;35355;49.198;-0.368;2023-03-21T01:40:35;100921.06;;;11.89;65.03
49461;BME280;35355;49.198;-0.368;2023-03-21T01:43:01;100924.88;;;11.88;65.00
49461;BME280;35355;49.198;-0.368;2023-03-21T01:48:24;100914.47;;;11.85;64.65
49461;BME280;35355;49.198;-0.368;2023-03-21T01:50:51;100915.03;;;11.82;64.89
49461;BME280;35355;49.198;-0.368;2023-03-21T01:53:19;100906.28;;;11.80;65.00
49461;BME280;35355;49.198;-0.368;2023-03-21T01:55:46;100899.16;;;11.79;64.92
49461;BME280;35355;49.198;-0.368;2023-03-21T01:58:14;100900.00;;;11.80;64.70
49461;BME280;35355;49.198;-0.368;2023-03-21T02:00:43;100890.69;;;11.81;65.09
49461;BME280;35355;49.198;-0.368;2023-03-21T02:03:09;100899.16;;;11.79;64.68
49461;BME280;35355;49.198;-0.368;2023-03-21T02:06:21;100893.41;;;11.75;64.63
49461;BME280;35355;49.198;-0.368;2023-03-21T02:08:39;100887.66;;;11.77;64.91
49461;BME280;35355;49.198;-0.368;2023-03-21T02:11:06;100889.56;;;11.76;64.98
49461;BME280;35355;49.198;-0.368;2023-03-21T02:13:31;100891.22;;;11.77;64.93
49461;BME280;35355;49.198;-0.368;2023-03-21T02:16:26;100887.34;;;11.73;64.76
49461;BME280;35355;49.198;-0.368;2023-03-21T02:27:07;100897.22;;;11.74;64.23
49461;BME280;35355;49.198;-0.368;2023-03-21T02:37:33;100894.44;;;11.64;64.76
49461;BME280;35355;49.198;-0.368;2023-03-21T02:45:14;100879.09;;;11.63;64.83
49461;BME280;35355;49.198;-0.368;2023-03-21T02:47:45;100873.38;;;11.65;64.91
49461;BME280;35355;49.198;-0.368;2023-03-21T02:50:30;100867.66;;;11.66;64.73
49461;BME280;35355;49.198;-0.368;2023-03-21T02:52:58;100847.41;;;11.67;64.43
49461;BME280;35355;49.198;-0.368;2023-03-21T02:55:29;100870.13;;;11.68;64.62
49461;BME280;35355;49.198;-0.368;2023-03-21T02:57:56;100869.59;;;11.71;64.71
49461;BME280;35355;49.198;-0.368;2023-03-21T03:00:25;100857.00;;;11.70;64.52
49461;BME280;35355;49.198;-0.368;2023-03-21T03:02:51;100844.41;;;11.69;64.72
49461;BME280;35355;49.198;-0.368;2023-03-21T03:05:22;100835.94;;;11.65;64.70
49461;BME280;35355;49.198;-0.368;2023-03-21T03:08:34;100828.25;;;11.62;64.57
49461;BME280;35355;49.198;-0.368;2023-03-21T03:11:19;100829.38;;;11.66;64.85
49461;BME280;35355;49.198;-0.368;2023-03-21T03:13:58;100829.63;;;11.65;64.80
49461;BME280;35355;49.198;-0.368;2023-03-21T03:16:38;100829.88;;;11.63;64.85
49461;BME280;35355;49.198;-0.368;2023-03-21T03:19:09;100820.59;;;11.64;64.77
49461;BME280;35355;49.198;-0.368;2023-03-21T03:21:46;100819.50;;;11.60;64.63
49461;BME280;35355;49.198;-0.368;2023-03-21T03:24:18;100840.81;;;11.63;65.02
49461;BME280;35355;49.198;-0.368;2023-03-21T03:26:46;100832.06;;;11.61;64.63
49461;BME280;35355;49.198;-0.368;2023-03-21T03:29:15;100832.06;;;11.61;64.83
49461;BME280;35355;49.198;-0.368;2023-03-21T03:31:49;100824.94;;;11.60;64.79
49461;BME280;35355;49.198;-0.368;2023-03-21T03:34:19;100828.25;;;11.62;64.68
49461;BME280;35355;49.198;-0.368;2023-03-21T03:36:48;100822.78;;;11.62;64.70
49461;BME280;35355;49.198;-0.368;2023-03-21T03:39:21;100825.78;;;11.61;64.84
49461;BME280;35355;49.198;-0.368;2023-03-21T03:41:53;100824.16;;;11.59;64.82
49461;BME280;35355;49.198;-0.368;2023-03-21T03:44:21;100820.59;;;11.59;64.94
49461;BME280;35355;49.198;-0.368;2023-03-21T03:46:54;100817.28;;;11.57;64.41
49461;BME280;35355;49.198;-0.368;2023-03-21T03:49:24;100824.94;;;11.55;64.49
49461;BME280;35355;49.198;-0.368;2023-03-21T03:54:24;100821.09;;;11.51;64.70
49461;BME280;35355;49.198;-0.368;2023-03-21T03:56:50;100810.69;;;11.53;64.58
49461;BME280;35355;49.198;-0.368;2023-03-21T03:59:16;100815.63;;;11.51;64.94
49461;BME280;35355;49.198;-0.368;2023-03-21T04:01:49;100819.44;;;11.50;65.13
49461;BME280;35355;49.198;-0.368;2023-03-21T04:04:15;100806.31;;;11.47;64.97
49461;BME280;35355;49.198;-0.368;2023-03-21T04:06:42;100797.56;;;11.45;65.16
49461;BME280;35355;49.198;-0.368;2023-03-21T04:09:10;100797.00;;;11.43;65.22
49461;BME280;35355;49.198;-0.368;2023-03-21T04:11:36;100804.94;;;11.44;65.21
49461;BME280;35355;49.198;-0.368;2023-03-21T04:14:01;100805.50;;;11.46;65.43
49461;BME280;35355;49.198;-0.368;2023-03-21T04:16:26;100791.00;;;11.46;65.11
49461;BME280;35355;49.198;-0.368;2023-03-21T04:18:52;100789.63;;;11.48;65.44
49461;BME280;35355;49.198;-0.368;2023-03-21T04:21:18;100785.00;;;11.49;65.26
49461;BME280;35355;49.198;-0.368;2023-03-21T04:23:44;100767.78;;;11.48;65.52
49461;BME280;35355;49.198;-0.368;2023-03-21T04:26:09;100774.88;;;11.49;65.48
49461;BME280;35355;49.198;-0.368;2023-03-21T04:28:35;100788.84;;;11.53;65.26
49461;BME280;35355;49.198;-0.368;2023-03-21T04:31:03;100805.53;;;11.56;65.02
49461;BME280;35355;49.198;-0.368;2023-03-21T04:33:29;100804.47;;;11.57;65.21
49461;BME280;35355;49.198;-0.368;2023-03-21T04:35:54;100785.59;;;11.56;65.12
49461;BME280;35355;49.198;-0.368;2023-03-21T04:38:21;100800.34;;;11.55;65.53
49461;BME280;35355;49.198;-0.368;2023-03-21T04:40:47;100822.22;;;11.55;65.48
49461;BME280;35355;49.198;-0.368;2023-03-21T04:43:12;100818.63;;;11.54;65.28
49461;BME280;35355;49.198;-0.368;2023-03-21T04:45:37;100807.97;;;11.53;65.68
49461;BME280;35355;49.198;-0.368;2023-03-21T04:48:03;100816.69;;;11.50;65.33
49461;BME280;35355;49.198;-0.368;2023-03-21T04:50:28;100819.97;;;11.47;65.23
49461;BME280;35355;49.198;-0.368;2023-03-21T04:52:54;100809.63;;;11.49;65.50
49461;BME280;35355;49.198;-0.368;2023-03-21T04:55:19;100804.97;;;11.49;65.81
49461;BME280;35355;49.198;-0.368;2023-03-21T04:57:45;100786.09;;;11.53;65.62
49461;BME280;35355;49.198;-0.368;2023-03-21T05:00:11;100802.00;;;11.56;66.04
49461;BME280;35355;49.198;-0.368;2023-03-21T05:02:39;100795.41;;;11.57;65.71
49461;BME280;35355;49.198;-0.368;2023-03-21T05:05:05;100788.56;;;11.54;65.57
49461;BME280;35355;49.198;-0.368;2023-03-21T05:07:36;100784.47;;;11.52;66.09
49461;BME280;35355;49.198;-0.368;2023-03-21T05:10:01;100782.56;;;11.52;66.12
49461;BME280;35355;49.198;-0.368;2023-03-21T05:12:26;100781.75;;;11.52;65.93
49461;BME280;35355;49.198;-0.368;2023-03-21T05:14:52;100772.44;;;11.53;66.43
49461;BME280;35355;49.198;-0.368;2023-03-21T05:17:17;100754.13;;;11.53;66.03
49461;BME280;35355;49.198;-0.368;2023-03-21T05:19:47;100752.78;;;11.56;66.82
49461;BME280;35355;49.198;-0.368;2023-03-21T05:22:15;100762.06;;;11.60;66.50
49461;BME280;35355;49.198;-0.368;2023-03-21T05:24:44;100784.50;;;11.62;66.82
49461;BME280;35355;49.198;-0.368;2023-03-21T05:27:18;100794.63;;;11.62;66.48
49461;BME280;35355;49.198;-0.368;2023-03-21T05:29:58;100798.19;;;11.62;65.35
49461;BME280;35355;49.198;-0.368;2023-03-21T05:32:24;100772.75;;;11.62;66.29
49461;BME280;35355;49.198;-0.368;2023-03-21T05:34:49;100779.28;;;11.55;66.76
49461;BME280;35355;49.198;-0.368;2023-03-21T05:37:14;100780.63;;;11.53;67.36
49461;BME280;35355;49.198;-0.368;2023-03-21T05:39:40;100765.34;;;11.52;67.13
49461;BME280;35355;49.198;-0.368;2023-03-21T05:42:05;100743.22;;;11.53;67.67
49461;BME280;35355;49.198;-0.368;2023-03-21T05:44:30;100752.50;;;11.52;67.41
49461;BME280;35355;49.198;-0.368;2023-03-21T05:46:56;100763.41;;;11.52;67.98
49461;BME280;35355;49.198;-0.368;2023-03-21T05:49:21;100768.88;;;11.52;68.11
49461;BME280;35355;49.198;-0.368;2023-03-21T05:51:47;100775.16;;;11.53;67.62
49461;BME280;35355;49.198;-0.368;2023-03-21T05:54:12;100766.97;;;11.53;67.75
49461;BME280;35355;49.198;-0.368;2023-03-21T05:56:40;100754.41;;;11.52;67.98
49461;BME280;35355;49.198;-0.368;2023-03-21T05:59:06;100771.34;;;11.54;68.16
49461;BME280;35355;49.198;-0.368;2023-03-21T06:01:31;100763.72;;;11.56;68.11
49461;BME280;35355;49.198;-0.368;2023-03-21T06:03:56;100756.06;;;11.58;67.95
49461;BME280;35355;49.198;-0.368;2023-03-21T06:06:22;100752.25;;;11.59;68.15
49461;BME280;35355;49.198;-0.368;2023-03-21T06:08:47;100757.72;;;11.59;68.30
49461;BME280;35355;49.198;-0.368;2023-03-21T06:11:24;100750.59;;;11.58;68.21
49461;BME280;35355;49.198;-0.368;2023-03-21T06:13:50;100745.66;;;11.60;68.61
49461;BME280;35355;49.198;-0.368;2023-03-21T06:16:15;100750.06;;;11.61;68.34
49461;BME280;35355;49.198;-0.368;2023-03-21T06:18:40;100739.38;;;11.59;68.45
49461;BME280;35355;49.198;-0.368;2023-03-21T06:21:06;100744.03;;;11.59;68.26
49461;BME280;35355;49.198;-0.368;2023-03-21T06:23:31;100735.84;;;11.59;68.79
49461;BME280;35355;49.198;-0.368;2023-03-21T06:25:57;100737.47;;;11.60;68.92
49461;BME280;35355;49.198;-0.368;2023-03-21T06:28:22;100733.38;;;11.63;68.61
49461;BME280;35355;49.198;-0.368;2023-03-21T06:30:47;100736.66;;;11.65;69.03
49461;BME280;35355;49.198;-0.368;2023-03-21T06:33:13;100742.69;;;11.67;68.71
49461;BME280;35355;49.198;-0.368;2023-03-21T06:35:38;100735.56;;;11.66;68.91
49461;BME280;35355;49.198;-0.368;2023-03-21T06:38:03;100737.47;;;11.60;68.84
49461;BME280;35355;49.198;-0.368;2023-03-21T06:40:29;100738.84;;;11.57;68.98
49461;BME280;35355;49.198;-0.368;2023-03-21T06:42:54;100738.00;;;11.57;68.89
49461;BME280;35355;49.198;-0.368;2023-03-21T06:45:20;100734.19;;;11.58;68.96
49461;BME280;35355;49.198;-0.368;2023-03-21T06:47:45;100741.31;;;11.59;69.29
49461;BME280;35355;49.198;-0.368;2023-03-21T06:50:10;100750.06;;;11.61;69.70
49461;BME280;35355;49.198;-0.368;2023-03-21T06:52:36;100750.59;;;11.63;69.63
49461;BME280;35355;49.198;-0.368;2023-03-21T06:55:01;100749.25;;;11.66;69.48
49461;BME280;35355;49.198;-0.368;2023-03-21T06:57:27;100751.72;;;11.67;69.64
49461;BME280;35355;49.198;-0.368;2023-03-21T06:59:52;100763.22;;;11.69;69.66
49461;BME280;35355;49.198;-0.368;2023-03-21T07:02:17;100758.28;;;11.71;69.52
49461;BME280;35355;49.198;-0.368;2023-03-21T07:04:43;100761.56;;;11.73;69.79
49461;BME280;35355;49.198;-0.368;2023-03-21T07:07:08;100767.56;;;11.70;69.65
49461;BME280;35355;49.198;-0.368;2023-03-21T07:09:33;100768.69;;;11.69;69.48
49461;BME280;35355;49.198;-0.368;2023-03-21T07:11:59;100759.91;;;11.67;70.04
49461;BME280;35355;49.198;-0.368;2023-03-21T07:14:24;100755.56;;;11.71;69.73
49461;BME280;35355;49.198;-0.368;2023-03-21T07:16:50;100765.69;;;11.76;69.76
49461;BME280;35355;49.198;-0.368;2023-03-21T07:19:15;100765.41;;;11.77;69.97
49461;BME280;35355;49.198;-0.368;2023-03-21T07:21:40;100768.72;;;11.80;69.85
49461;BME280;35355;49.198;-0.368;2023-03-21T07:24:06;100760.25;;;11.81;70.09
49461;BME280;35355;49.198;-0.368;2023-03-21T07:26:31;100759.69;;;11.84;70.25
49461;BME280;35355;49.198;-0.368;2023-03-21T07:28:57;100767.09;;;11.89;70.32
49461;BME280;35355;49.198;-0.368;2023-03-21T07:31:22;100766.84;;;11.96;70.13
49461;BME280;35355;49.198;-0.368;2023-03-21T07:33:51;100765.53;;;12.03;70.71
49461;BME280;35355;49.198;-0.368;2023-03-21T07:36:17;100767.44;;;12.13;70.36
49461;BME280;35355;49.198;-0.368;2023-03-21T07:38:44;100771.03;;;12.24;70.44
49461;BME280;35355;49.198;-0.368;2023-03-21T07:41:10;100769.91;;;12.35;70.65
49461;BME280;35355;49.198;-0.368;2023-03-21T07:43:36;100776.75;;;12.43;70.51
49461;BME280;35355;49.198;-0.368;2023-03-21T07:46:01;100771.84;;;12.50;70.42
49461;BME280;35355;49.198;-0.368;2023-03-21T07:48:28;100777.59;;;12.54;70.17
49461;BME280;35355;49.198;-0.368;2023-03-21T07:50:53;100784.19;;;12.58;70.36
49461;BME280;35355;49.198;-0.368;2023-03-21T07:53:19;100769.66;;;12.62;70.46
49461;BME280;35355;49.198;-0.368;2023-03-21T07:55:49;100766.91;;;12.68;70.16
49461;BME280;35355;49.198;-0.368;2023-03-21T07:58:14;100771.56;;;12.72;70.42
49461;BME280;35355;49.198;-0.368;2023-03-21T08:00:40;100767.19;;;12.81;69.85
49461;BME280;35355;49.198;-0.368;2023-03-21T08:03:06;100767.44;;;12.85;70.29
49461;BME280;35355;49.198;-0.368;2023-03-21T08:05:33;100772.38;;;12.88;70.43
49461;BME280;35355;49.198;-0.368;2023-03-21T08:08:00;100760.56;;;12.93;70.47
49461;BME280;35355;49.198;-0.368;2023-03-21T08:10:25;100768.50;;;12.99;70.51
49461;BME280;35355;49.198;-0.368;2023-03-21T08:12:51;100770.41;;;13.04;70.39
49461;BME280;35355;49.198;-0.368;2023-03-21T08:15:17;100772.84;;;13.11;70.56
49461;BME280;35355;49.198;-0.368;2023-03-21T08:17:42;100776.97;;;13.19;70.33
49461;BME280;35355;49.198;-0.368;2023-03-21T08:20:12;100782.97;;;13.26;70.20
49461;BME280;35355;49.198;-0.368;2023-03-21T08:22:38;100765.41;;;13.32;70.49
49461;BME280;35355;49.198;-0.368;2023-03-21T08:25:06;100776.66;;;13.36;70.11
49461;BME280;35355;49.198;-0.368;2023-03-21T08:27:32;100771.16;;;13.41;70.17
49461;BME280;35355;49.198;-0.368;2023-03-21T08:29:59;100773.06;;;13.45;70.39
49461;BME280;35355;49.198;-0.368;2023-03-21T08:32:25;100776.34;;;13.53;70.43
49461;BME280;35355;49.198;-0.368;2023-03-21T08:35:00;100794.94;;;13.61;70.62
49461;BME280;35355;49.198;-0.368;2023-03-21T08:37:27;100785.56;;;13.67;70.66
49461;BME280;35355;49.198;-0.368;2023-03-21T08:39:52;100789.13;;;13.73;70.58
49461;BME280;35355;49.198;-0.368;2023-03-21T08:42:19;100792.13;;;13.76;70.41
49461;BME280;35355;49.198;-0.368;2023-03-21T08:44:45;100787.47;;;13.77;70.70
49461;BME280;35355;49.198;-0.368;2023-03-21T08:47:10;100797.88;;;13.80;70.78
49461;BME280;35355;49.198;-0.368;2023-03-21T08:49:35;100802.50;;;13.84;70.91
49461;BME280;35355;49.198;-0.368;2023-03-21T08:52:01;100808.78;;;13.90;70.78
49461;BME280;35355;49.198;-0.368;2023-03-21T08:54:26;100799.19;;;13.93;70.78
49461;BME280;35355;49.198;-0.368;2023-03-21T08:56:52;100801.34;;;13.96;70.65
49461;BME280;35355;49.198;-0.368;2023-03-21T08:59:17;100800.78;;;13.99;70.83
49461;BME280;35355;49.198;-0.368;2023-03-21T09:01:43;100806.00;;;14.00;70.48
49461;BME280;35355;49.198;-0.368;2023-03-21T09:04:09;100807.94;;;14.00;70.60
49461;BME280;35355;49.198;-0.368;2023-03-21T09:06:39;100811.25;;;13.97;70.32
49461;BME280;35355;49.198;-0.368;2023-03-21T09:09:14;100814.53;;;13.94;70.57
49461;BME280;35355;49.198;-0.368;2023-03-21T09:11:40;100827.97;;;13.95;70.51
49461;BME280;35355;49.198;-0.368;2023-03-21T09:14:06;100825.47;;;13.99;70.74
49461;BME280;35355;49.198;-0.368;2023-03-21T09:16:32;100830.97;;;14.04;70.72
49461;BME280;35355;49.198;-0.368;2023-03-21T09:18:58;100829.25;;;14.13;70.58
49461;BME280;35355;49.198;-0.368;2023-03-21T09:21:25;100829.19;;;14.24;70.61
49461;BME280;35355;49.198;-0.368;2023-03-21T09:23:53;100819.25;;;14.33;70.48
49461;BME280;35355;49.198;-0.368;2023-03-21T09:26:22;100817.03;;;14.35;70.42
49461;BME280;35355;49.198;-0.368;2023-03-21T09:28:48;100815.31;;;14.44;70.29
49461;BME280;35355;49.198;-0.368;2023-03-21T09:31:14;100807.31;;;14.53;70.18
49461;BME280;35355;49.198;-0.368;2023-03-21T09:33:45;100819.63;;;14.55;69.94
49461;BME280;35355;49.198;-0.368;2023-03-21T09:36:11;100814.38;;;14.59;69.92
49461;BME280;35355;49.198;-0.368;2023-03-21T09:38:45;100801.47;;;14.60;70.00
49461;BME280;35355;49.198;-0.368;2023-03-21T09:44:15;100790.97;;;14.72;69.71
49461;BME280;35355;49.198;-0.368;2023-03-21T09:46:50;100788.16;;;14.77;69.69
49461;BME280;35355;49.198;-0.368;2023-03-21T09:49:27;100792.50;;;14.83;69.57
49461;BME280;35355;49.198;-0.368;2023-03-21T09:51:58;100783.09;;;14.89;69.32
49461;BME280;35355;49.198;-0.368;2023-03-21T09:54:30;100777.19;;;15.01;69.38
49461;BME280;35355;49.198;-0.368;2023-03-21T09:56:58;100785.03;;;15.13;69.56
49461;BME280;35355;49.198;-0.368;2023-03-21T09:59:31;100782.72;;;15.25;68.88
49461;BME280;35355;49.198;-0.368;2023-03-21T10:02:20;100778.34;;;15.24;68.49
49461;BME280;35355;49.198;-0.368;2023-03-21T10:04:57;100779.44;;;15.23;68.08
49461;BME280;35355;49.198;-0.368;2023-03-21T10:07:22;100775.28;;;15.26;67.89
49461;BME280;35355;49.198;-0.368;2023-03-21T10:09:49;100774.41;;;15.31;68.07
49461;BME280;35355;49.198;-0.368;2023-03-21T10:12:20;100772.13;;;15.38;68.04
49461;BME280;35355;49.198;-0.368;2023-03-21T10:14:49;100773.09;;;15.47;67.83
49461;BME280;35355;49.198;-0.368;2023-03-21T10:17:26;100778.28;;;15.54;67.57
49461;BME280;35355;49.198;-0.368;2023-03-21T10:20:22;100786.19;;;15.60;67.62
49461;BME280;35355;49.198;-0.368;2023-03-21T10:22:48;100779.41;;;15.72;67.04
49461;BME280;35355;49.198;-0.368;2023-03-21T10:25:17;100786.31;;;15.69;66.77
49461;BME280;35355;49.198;-0.368;2023-03-21T10:27:44;100780.69;;;15.60;66.55
49461;BME280;35355;49.198;-0.368;2023-03-21T10:30:20;100789.63;;;15.47;66.48
49461;BME280;35355;49.198;-0.368;2023-03-21T10:32:47;100791.38;;;15.38;66.41
49461;BME280;35355;49.198;-0.368;2023-03-21T10:35:13;100789.50;;;15.33;66.55
49461;BME280;35355;49.198;-0.368;2023-03-21T10:37:38;100791.75;;;15.31;66.57
49461;BME280;35355;49.198;-0.368;2023-03-21T10:40:06;100800.81;;;15.32;66.64
49461;BME280;35355;49.198;-0.368;2023-03-21T10:42:33;100794.50;;;15.31;66.68
49461;BME280;35355;49.198;-0.368;2023-03-21T10:45:00;100797.53;;;15.30;66.49
49461;BME280;35355;49.198;-0.368;2023-03-21T10:47:26;100797.00;;;15.27;66.53
49461;BME280;35355;49.198;-0.368;2023-03-21T10:49:53;100786.59;;;15.24;66.76
49461;BME280;35355;49.198;-0.368;2023-03-21T10:52:21;100780.75;;;15.31;66.89
49461;BME280;35355;49.198;-0.368;2023-03-21T10:54:48;100782.50;;;15.46;67.02
49461;BME280;35355;49.198;-0.368;2023-03-21T10:57:21;100779.25;;;15.63;67.13
49461;BME280;35355;49.198;-0.368;2023-03-21T10:59:54;100782.88;;;15.83;67.03
49461;BME280;35355;49.198;-0.368;2023-03-21T11:02:26;100784.97;;;15.91;66.34
49461;BME280;35355;49.198;-0.368;2023-03-21T11:04:53;100784.91;;;15.96;65.72
49461;BME280;35355;49.198;-0.368;2023-03-21T11:07:20;100789.06;;;15.93;65.50
49461;BME280;35355;49.198;-0.368;2023-03-21T11:09:56;100788.31;;;15.88;65.73
49461;BME280;35355;49.198;-0.368;2023-03-21T11:12:30;100779.00;;;15.84;65.57
49461;BME280;35355;49.198;-0.368;2023-03-21T11:14:56;100785.66;;;15.77;65.16
49461;BME280;35355;49.198;-0.368;2023-03-21T11:17:29;100783.28;;;15.71;65.26
49461;BME280;35355;49.198;-0.368;2023-03-21T11:20:04;100776.19;;;15.65;65.15
49461;BME280;35355;49.198;-0.368;2023-03-21T11:22:38;100777.91;;;15.60;65.28
49461;BME280;35355;49.198;-0.368;2023-03-21T11:25:17;100774.00;;;15.67;65.40
49461;BME280;35355;49.198;-0.368;2023-03-21T11:27:54;100768.34;;;15.77;65.57
49461;BME280;35355;49.198;-0.368;2023-03-21T11:30:26;100758.34;;;15.86;65.30
49461;BME280;35355;49.198;-0.368;2023-03-21T11:33:00;100764.59;;;15.92;65.31
49461;BME280;35355;49.198;-0.368;2023-03-21T11:35:33;100762.66;;;15.92;64.84
49461;BME280;35355;49.198;-0.368;2023-03-21T11:37:59;100772.84;;;15.92;64.61
49461;BME280;35355;49.198;-0.368;2023-03-21T11:40:26;100768.16;;;15.92;64.44
49461;BME280;35355;49.198;-0.368;2023-03-21T11:42:54;100767.09;;;15.88;64.19
49461;BME280;35355;49.198;-0.368;2023-03-21T11:45:30;100767.47;;;15.82;63.96
49461;BME280;35355;49.198;-0.368;2023-03-21T11:47:58;100769.44;;;15.76;63.91
49461;BME280;35355;49.198;-0.368;2023-03-21T11:50:42;100768.41;;;15.72;64.22
49461;BME280;35355;49.198;-0.368;2023-03-21T11:53:15;100761.50;;;15.74;63.90
49461;BME280;35355;49.198;-0.368;2023-03-21T12:01:21;100748.72;;;15.84;63.77
49461;BME280;35355;49.198;-0.368;2023-03-21T12:06:52;100750.59;;;15.88;62.88
49461;BME280;35355;49.198;-0.368;2023-03-21T12:17:32;100764.72;;;15.57;62.51
49461;BME280;35355;49.198;-0.368;2023-03-21T12:25:19;100756.47;;;15.57;62.62
49461;BME280;35355;49.198;-0.368;2023-03-21T12:41:25;100742.28;;;15.93;62.90
49461;BME280;35355;49.198;-0.368;2023-03-21T12:43:59;100739.06;;;16.05;62.87
49461;BME280;35355;49.198;-0.368;2023-03-21T12:49:33;100738.75;;;16.07;62.86
49461;BME280;35355;49.198;-0.368;2023-03-21T12:52:15;100737.06;;;16.11;63.06
49461;BME280;35355;49.198;-0.368;2023-03-21T12:54:50;100729.31;;;16.13;62.85
49461;BME280;35355;49.198;-0.368;2023-03-21T12:57:27;100734.66;;;16.23;63.67
49461;BME280;35355;49.198;-0.368;2023-03-21T13:00:00;100739.56;;;16.26;62.51
49461;BME280;35355;49.198;-0.368;2023-03-21T13:02:42;100733.44;;;16.29;62.72
49461;BME280;35355;49.198;-0.368;2023-03-21T13:08:17;100721.44;;;16.39;62.55
49461;BME280;35355;49.198;-0.368;2023-03-21T13:10:45;100722.69;;;16.47;61.35
49461;BME280;35355;49.198;-0.368;2023-03-21T13:21:31;100718.41;;;16.55;59.99
49461;BME280;35355;49.198;-0.368;2023-03-21T13:24:27;100712.09;;;16.54;59.59
49461;BME280;35355;49.198;-0.368;2023-03-21T13:27:03;100720.56;;;16.58;59.74
49461;BME280;35355;49.198;-0.368;2023-03-21T13:29:34;100705.59;;;16.64;58.87
49461;BME280;35355;49.198;-0.368;2023-03-21T13:34:40;100696.00;;;16.75;57.48
49461;BME280;35355;49.198;-0.368;2023-03-21T13:37:13;100696.53;;;16.77;57.79
49461;BME280;35355;49.198;-0.368;2023-03-21T13:39:43;100701.13;;;16.82;57.11
49461;BME280;35355;49.198;-0.368;2023-03-21T13:42:17;100688.69;;;16.84;57.19
49461;BME280;35355;49.198;-0.368;2023-03-21T13:44:49;100697.16;;;16.88;56.02
49461;BME280;35355;49.198;-0.368;2023-03-21T13:47:38;100698.28;;;16.87;56.55
49461;BME280;35355;49.198;-0.368;2023-03-21T13:50:21;100685.03;;;16.89;56.79
49461;BME280;35355;49.198;-0.368;2023-03-21T13:53:10;100687.25;;;16.87;56.78
49461;BME280;35355;49.198;-0.368;2023-03-21T13:55:43;100695.22;;;16.89;55.36
49461;BME280;35355;49.198;-0.368;2023-03-21T13:58:39;100682.94;;;16.81;56.20
49461;BME280;35355;49.198;-0.368;2023-03-21T14:03:46;100685.19;;;16.79;55.25
49461;BME280;35355;49.198;-0.368;2023-03-21T14:06:12;100682.94;;;16.81;54.45
49461;BME280;35355;49.198;-0.368;2023-03-21T14:08:40;100682.31;;;16.84;54.58
49461;BME280;35355;49.198;-0.368;2023-03-21T14:11:12;100686.72;;;16.85;54.41
49461;BME280;35355;49.198;-0.368;2023-03-21T14:13:40;100685.03;;;16.89;54.07